Hauptseite
METAR-TAF:

METAR-TAF

Flughäfen :

Port Moresby, Papua-Neuguinea

Flughafen Port Moresby

Breite: 09-26S, Länge: 147-13E, Höhe: 38 m

METAR: fehlend

Zeit: 13:20 (03:20 UTC)

Prognose

Neuester Wetterbericht von vor 5 Stunden und 1 Minuten, um 22:19 UTC
Gültige Prognose vom 30 um 00 UTC bis 30 um 24 UTC
Wind 8 kt aus Süd/Südost
Sichtweite 10 km oder mehr
Aufgelockert bewölkt in der Höhe von 1800 ft
Ab 30 um 0400 UTC
Wind 10 kt aus Süd
Sichtweite 10 km oder mehr
Aufgelockert bewölkt in der Höhe von 1800 ft
Aufgelockert bewölkt in der Höhe von 4000 ft

TAF: AYPY 292219Z 3000/3024 16008KT 9999 SCT018 FM300400 18010KT 9999 SCT018 SCT040

Wetterbeobachtungen und Prognosen von mehr als 4000 Flughäfen (METAR und TAF Bericht).

Die verfügbaren Stationen werden durch gelbe und rote Markierungen auf der Karte dargestellt.

Führen Sie die Maus auf sie, um den Namen der Station zu sehen.

Darauf klicken, um die Beobachtung von Wetterbeobachtungen und Prognosen zu sehen.

Um die Karte zu ändern : klicken Sie auf den grünen Tasten mit einem schwarzen Kreuz Zum Vergrößern, auf den grünen Button mit einem Gedankenstrich zu verkleinern, oder auf die grünen Pfeile für benachbarte Karten.


METAR-TAF: